sensor_id;sensor_type;location;lat;lon;timestamp;P1;durP1;ratioP1;P2;durP2;ratioP2
25663;SDS011;13522;50.018;20.014;2022-11-15T00:01:08;64.18;;;25.25;;
25663;SDS011;13522;50.018;20.014;2022-11-15T00:04:43;72.95;;;23.25;;
25663;SDS011;13522;50.018;20.014;2022-11-15T00:08:13;61.20;;;24.45;;
25663;SDS011;13522;50.018;20.014;2022-11-15T00:11:44;87.98;;;23.43;;
25663;SDS011;13522;50.018;20.014;2022-11-15T00:15:14;66.05;;;23.40;;
25663;SDS011;13522;50.018;20.014;2022-11-15T00:18:45;42.15;;;23.20;;
25663;SDS011;13522;50.018;20.014;2022-11-15T00:22:16;40.25;;;20.50;;
25663;SDS011;13522;50.018;20.014;2022-11-15T00:25:46;78.93;;;23.58;;
25663;SDS011;13522;50.018;20.014;2022-11-15T00:29:24;36.98;;;22.00;;
25663;SDS011;13522;50.018;20.014;2022-11-15T00:32:54;62.05;;;22.03;;
25663;SDS011;13522;50.018;20.014;2022-11-15T00:36:25;93.80;;;22.35;;
25663;SDS011;13522;50.018;20.014;2022-11-15T00:39:55;58.03;;;22.13;;
25663;SDS011;13522;50.018;20.014;2022-11-15T00:43:26;39.43;;;21.63;;
25663;SDS011;13522;50.018;20.014;2022-11-15T00:46:57;44.40;;;20.63;;
25663;SDS011;13522;50.018;20.014;2022-11-15T00:50:28;110.18;;;20.95;;
25663;SDS011;13522;50.018;20.014;2022-11-15T00:53:59;50.55;;;21.25;;
25663;SDS011;13522;50.018;20.014;2022-11-15T00:57:29;54.60;;;20.03;;
25663;SDS011;13522;50.018;20.014;2022-11-15T01:01:06;105.15;;;22.98;;
25663;SDS011;13522;50.018;20.014;2022-11-15T01:04:39;65.18;;;20.93;;
25663;SDS011;13522;50.018;20.014;2022-11-15T01:08:13;48.63;;;22.15;;
25663;SDS011;13522;50.018;20.014;2022-11-15T01:11:45;64.53;;;20.98;;
25663;SDS011;13522;50.018;20.014;2022-11-15T01:15:16;74.90;;;21.08;;
25663;SDS011;13522;50.018;20.014;2022-11-15T01:18:46;38.20;;;18.20;;
25663;SDS011;13522;50.018;20.014;2022-11-15T01:22:17;46.28;;;19.50;;
25663;SDS011;13522;50.018;20.014;2022-11-15T01:25:48;36.40;;;17.98;;
25663;SDS011;13522;50.018;20.014;2022-11-15T01:29:18;51.80;;;18.18;;
25663;SDS011;13522;50.018;20.014;2022-11-15T01:32:49;101.18;;;20.45;;
25663;SDS011;13522;50.018;20.014;2022-11-15T01:36:20;47.10;;;17.98;;
25663;SDS011;13522;50.018;20.014;2022-11-15T01:39:51;83.93;;;19.65;;
25663;SDS011;13522;50.018;20.014;2022-11-15T01:43:22;40.98;;;19.03;;
25663;SDS011;13522;50.018;20.014;2022-11-15T01:46:55;35.80;;;19.35;;
25663;SDS011;13522;50.018;20.014;2022-11-15T01:50:28;109.80;;;20.73;;
25663;SDS011;13522;50.018;20.014;2022-11-15T01:54:02;51.88;;;18.95;;
25663;SDS011;13522;50.018;20.014;2022-11-15T01:57:37;69.25;;;19.53;;
25663;SDS011;13522;50.018;20.014;2022-11-15T02:01:10;97.65;;;18.85;;
25663;SDS011;13522;50.018;20.014;2022-11-15T02:04:42;63.13;;;19.45;;
25663;SDS011;13522;50.018;20.014;2022-11-15T02:08:15;55.08;;;18.55;;
25663;SDS011;13522;50.018;20.014;2022-11-15T02:11:47;119.85;;;20.45;;
25663;SDS011;13522;50.018;20.014;2022-11-15T02:15:21;35.50;;;19.03;;
25663;SDS011;13522;50.018;20.014;2022-11-15T02:19:00;39.35;;;19.08;;
25663;SDS011;13522;50.018;20.014;2022-11-15T02:22:37;60.23;;;19.38;;
25663;SDS011;13522;50.018;20.014;2022-11-15T02:26:19;37.65;;;18.90;;
25663;SDS011;13522;50.018;20.014;2022-11-15T02:30:23;28.90;;;18.25;;
25663;SDS011;13522;50.018;20.014;2022-11-15T02:34:00;33.15;;;17.83;;
25663;SDS011;13522;50.018;20.014;2022-11-15T02:37:39;32.50;;;18.50;;
25663;SDS011;13522;50.018;20.014;2022-11-15T02:41:20;39.93;;;18.93;;
25663;SDS011;13522;50.018;20.014;2022-11-15T02:44:57;45.90;;;18.98;;
25663;SDS011;13522;50.018;20.014;2022-11-15T02:48:33;37.28;;;19.00;;
25663;SDS011;13522;50.018;20.014;2022-11-15T02:52:06;99.83;;;18.88;;
25663;SDS011;13522;50.018;20.014;2022-11-15T02:55:40;74.05;;;16.95;;
25663;SDS011;13522;50.018;20.014;2022-11-15T02:59:27;57.50;;;17.20;;
25663;SDS011;13522;50.018;20.014;2022-11-15T03:03:18;29.63;;;15.75;;
25663;SDS011;13522;50.018;20.014;2022-11-15T03:07:00;56.18;;;17.30;;
25663;SDS011;13522;50.018;20.014;2022-11-15T03:10:40;31.63;;;15.05;;
25663;SDS011;13522;50.018;20.014;2022-11-15T03:14:19;24.63;;;15.30;;
25663;SDS011;13522;50.018;20.014;2022-11-15T03:17:53;37.20;;;15.93;;
25663;SDS011;13522;50.018;20.014;2022-11-15T03:21:28;74.48;;;16.33;;
25663;SDS011;13522;50.018;20.014;2022-11-15T03:25:02;44.03;;;15.88;;
25663;SDS011;13522;50.018;20.014;2022-11-15T03:28:38;25.75;;;14.10;;
25663;SDS011;13522;50.018;20.014;2022-11-15T03:32:12;32.15;;;14.25;;
25663;SDS011;13522;50.018;20.014;2022-11-15T03:35:46;29.58;;;14.08;;
25663;SDS011;13522;50.018;20.014;2022-11-15T03:39:19;42.90;;;14.05;;
25663;SDS011;13522;50.018;20.014;2022-11-15T03:42:54;38.23;;;13.85;;
25663;SDS011;13522;50.018;20.014;2022-11-15T03:46:31;27.13;;;13.55;;
25663;SDS011;13522;50.018;20.014;2022-11-15T03:50:07;20.65;;;14.73;;
25663;SDS011;13522;50.018;20.014;2022-11-15T03:53:41;38.13;;;14.35;;
25663;SDS011;13522;50.018;20.014;2022-11-15T03:57:12;60.83;;;14.80;;
25663;SDS011;13522;50.018;20.014;2022-11-15T04:00:43;51.40;;;14.38;;
25663;SDS011;13522;50.018;20.014;2022-11-15T04:04:13;32.33;;;14.60;;
25663;SDS011;13522;50.018;20.014;2022-11-15T04:07:44;42.80;;;14.65;;
25663;SDS011;13522;50.018;20.014;2022-11-15T04:11:15;28.40;;;14.25;;
25663;SDS011;13522;50.018;20.014;2022-11-15T04:14:46;47.60;;;15.08;;
25663;SDS011;13522;50.018;20.014;2022-11-15T04:18:18;27.80;;;13.70;;
25663;SDS011;13522;50.018;20.014;2022-11-15T04:21:49;27.70;;;14.55;;
25663;SDS011;13522;50.018;20.014;2022-11-15T04:25:33;37.15;;;14.28;;
25663;SDS011;13522;50.018;20.014;2022-11-15T04:29:04;30.43;;;13.03;;
25663;SDS011;13522;50.018;20.014;2022-11-15T04:32:50;49.13;;;13.75;;
25663;SDS011;13522;50.018;20.014;2022-11-15T04:36:20;32.05;;;14.58;;
25663;SDS011;13522;50.018;20.014;2022-11-15T04:40:07;28.13;;;14.40;;
25663;SDS011;13522;50.018;20.014;2022-11-15T04:43:38;49.48;;;15.08;;
25663;SDS011;13522;50.018;20.014;2022-11-15T04:47:09;62.38;;;14.90;;
25663;SDS011;13522;50.018;20.014;2022-11-15T04:50:39;54.83;;;14.15;;
25663;SDS011;13522;50.018;20.014;2022-11-15T04:54:10;55.80;;;14.33;;
25663;SDS011;13522;50.018;20.014;2022-11-15T04:57:40;55.83;;;14.28;;
25663;SDS011;13522;50.018;20.014;2022-11-15T05:01:11;28.98;;;14.30;;
25663;SDS011;13522;50.018;20.014;2022-11-15T05:04:43;53.10;;;14.18;;
25663;SDS011;13522;50.018;20.014;2022-11-15T05:08:13;68.68;;;14.65;;
25663;SDS011;13522;50.018;20.014;2022-11-15T05:11:44;55.45;;;12.98;;
25663;SDS011;13522;50.018;20.014;2022-11-15T05:15:15;57.45;;;14.25;;
25663;SDS011;13522;50.018;20.014;2022-11-15T05:18:45;20.63;;;11.80;;
25663;SDS011;13522;50.018;20.014;2022-11-15T05:22:20;47.58;;;11.88;;
25663;SDS011;13522;50.018;20.014;2022-11-15T05:25:51;96.25;;;14.50;;
25663;SDS011;13522;50.018;20.014;2022-11-15T05:29:21;87.38;;;13.63;;
25663;SDS011;13522;50.018;20.014;2022-11-15T05:32:51;39.25;;;13.25;;
25663;SDS011;13522;50.018;20.014;2022-11-15T05:36:27;41.50;;;12.90;;
25663;SDS011;13522;50.018;20.014;2022-11-15T05:40:08;27.40;;;12.43;;
25663;SDS011;13522;50.018;20.014;2022-11-15T05:43:38;77.60;;;14.08;;
25663;SDS011;13522;50.018;20.014;2022-11-15T05:47:11;28.68;;;13.53;;
25663;SDS011;13522;50.018;20.014;2022-11-15T05:50:45;175.93;;;15.95;;
25663;SDS011;13522;50.018;20.014;2022-11-15T05:54:16;38.75;;;14.88;;
25663;SDS011;13522;50.018;20.014;2022-11-15T05:57:49;64.70;;;15.30;;
25663;SDS011;13522;50.018;20.014;2022-11-15T06:01:19;50.40;;;16.05;;
25663;SDS011;13522;50.018;20.014;2022-11-15T06:04:50;120.40;;;24.15;;
25663;SDS011;13522;50.018;20.014;2022-11-15T06:08:20;58.03;;;28.30;;
25663;SDS011;13522;50.018;20.014;2022-11-15T06:11:51;72.98;;;18.60;;
25663;SDS011;13522;50.018;20.014;2022-11-15T06:15:21;98.40;;;16.33;;
25663;SDS011;13522;50.018;20.014;2022-11-15T06:18:52;57.23;;;15.25;;
25663;SDS011;13522;50.018;20.014;2022-11-15T06:22:22;22.73;;;13.63;;
25663;SDS011;13522;50.018;20.014;2022-11-15T06:25:53;44.05;;;12.28;;
25663;SDS011;13522;50.018;20.014;2022-11-15T06:29:25;45.13;;;12.63;;
25663;SDS011;13522;50.018;20.014;2022-11-15T06:32:59;39.53;;;12.60;;
25663;SDS011;13522;50.018;20.014;2022-11-15T06:36:33;82.85;;;44.48;;
25663;SDS011;13522;50.018;20.014;2022-11-15T06:40:05;162.30;;;18.28;;
25663;SDS011;13522;50.018;20.014;2022-11-15T06:43:38;21.45;;;13.35;;
25663;SDS011;13522;50.018;20.014;2022-11-15T06:47:10;24.10;;;11.73;;
25663;SDS011;13522;50.018;20.014;2022-11-15T06:50:40;59.08;;;14.65;;
25663;SDS011;13522;50.018;20.014;2022-11-15T06:54:11;50.10;;;12.58;;
25663;SDS011;13522;50.018;20.014;2022-11-15T06:57:47;27.50;;;13.55;;
25663;SDS011;13522;50.018;20.014;2022-11-15T07:01:19;34.90;;;13.45;;
25663;SDS011;13522;50.018;20.014;2022-11-15T07:04:49;50.53;;;14.50;;
25663;SDS011;13522;50.018;20.014;2022-11-15T07:08:20;57.28;;;14.00;;
25663;SDS011;13522;50.018;20.014;2022-11-15T07:11:51;41.73;;;12.45;;
25663;SDS011;13522;50.018;20.014;2022-11-15T07:15:25;92.10;;;14.43;;
25663;SDS011;13522;50.018;20.014;2022-11-15T07:18:55;78.28;;;13.75;;
25663;SDS011;13522;50.018;20.014;2022-11-15T07:22:25;83.28;;;14.70;;
25663;SDS011;13522;50.018;20.014;2022-11-15T07:25:57;34.50;;;12.43;;
25663;SDS011;13522;50.018;20.014;2022-11-15T07:29:28;92.88;;;14.85;;
25663;SDS011;13522;50.018;20.014;2022-11-15T07:32:58;56.68;;;12.03;;
25663;SDS011;13522;50.018;20.014;2022-11-15T07:36:29;52.53;;;13.43;;
25663;SDS011;13522;50.018;20.014;2022-11-15T07:39:59;107.05;;;37.93;;
25663;SDS011;13522;50.018;20.014;2022-11-15T07:43:30;85.83;;;18.80;;
25663;SDS011;13522;50.018;20.014;2022-11-15T07:47:00;30.13;;;16.20;;
25663;SDS011;13522;50.018;20.014;2022-11-15T07:50:31;28.65;;;14.93;;
25663;SDS011;13522;50.018;20.014;2022-11-15T07:54:01;38.03;;;14.75;;
25663;SDS011;13522;50.018;20.014;2022-11-15T07:57:32;26.15;;;16.10;;
25663;SDS011;13522;50.018;20.014;2022-11-15T08:01:03;37.60;;;15.73;;
25663;SDS011;13522;50.018;20.014;2022-11-15T08:04:36;30.00;;;15.63;;
25663;SDS011;13522;50.018;20.014;2022-11-15T08:08:06;73.95;;;17.45;;
25663;SDS011;13522;50.018;20.014;2022-11-15T08:11:38;178.43;;;84.90;;
25663;SDS011;13522;50.018;20.014;2022-11-15T08:15:09;44.75;;;22.80;;
25663;SDS011;13522;50.018;20.014;2022-11-15T08:18:40;78.85;;;19.38;;
25663;SDS011;13522;50.018;20.014;2022-11-15T08:22:10;25.18;;;17.30;;
25663;SDS011;13522;50.018;20.014;2022-11-15T08:25:40;48.18;;;18.80;;
25663;SDS011;13522;50.018;20.014;2022-11-15T08:29:11;33.68;;;18.38;;
25663;SDS011;13522;50.018;20.014;2022-11-15T08:32:41;45.13;;;18.40;;
25663;SDS011;13522;50.018;20.014;2022-11-15T08:36:15;76.63;;;19.95;;
25663;SDS011;13522;50.018;20.014;2022-11-15T08:39:45;46.25;;;21.53;;
25663;SDS011;13522;50.018;20.014;2022-11-15T08:43:15;82.17;;;20.98;;
25663;SDS011;13522;50.018;20.014;2022-11-15T08:46:46;82.33;;;42.28;;
25663;SDS011;13522;50.018;20.014;2022-11-15T08:50:17;41.73;;;22.18;;
25663;SDS011;13522;50.018;20.014;2022-11-15T08:53:47;37.78;;;19.48;;
25663;SDS011;13522;50.018;20.014;2022-11-15T08:57:17;58.93;;;19.18;;
25663;SDS011;13522;50.018;20.014;2022-11-15T09:00:48;31.70;;;19.10;;
25663;SDS011;13522;50.018;20.014;2022-11-15T09:04:18;40.98;;;18.90;;
25663;SDS011;13522;50.018;20.014;2022-11-15T09:07:48;52.43;;;19.73;;
25663;SDS011;13522;50.018;20.014;2022-11-15T09:11:24;43.40;;;19.25;;
25663;SDS011;13522;50.018;20.014;2022-11-15T09:14:56;26.45;;;18.40;;
25663;SDS011;13522;50.018;20.014;2022-11-15T09:18:26;35.40;;;19.28;;
25663;SDS011;13522;50.018;20.014;2022-11-15T09:21:59;75.40;;;30.80;;
25663;SDS011;13522;50.018;20.014;2022-11-15T09:25:30;35.13;;;20.93;;
25663;SDS011;13522;50.018;20.014;2022-11-15T09:29:01;39.00;;;19.05;;
25663;SDS011;13522;50.018;20.014;2022-11-15T09:32:32;41.78;;;20.40;;
25663;SDS011;13522;50.018;20.014;2022-11-15T09:36:02;29.60;;;18.00;;
25663;SDS011;13522;50.018;20.014;2022-11-15T09:39:36;35.10;;;20.15;;
25663;SDS011;13522;50.018;20.014;2022-11-15T09:43:08;27.83;;;18.35;;
25663;SDS011;13522;50.018;20.014;2022-11-15T09:47:03;31.78;;;20.28;;
25663;SDS011;13522;50.018;20.014;2022-11-15T09:50:28;40.60;;;24.73;;
25663;SDS011;13522;50.018;20.014;2022-11-15T09:53:48;36.83;;;23.53;;
25663;SDS011;13522;50.018;20.014;2022-11-15T09:57:11;40.85;;;23.10;;
25663;SDS011;13522;50.018;20.014;2022-11-15T10:00:26;40.10;;;23.10;;
25663;SDS011;13522;50.018;20.014;2022-11-15T10:03:44;41.15;;;22.40;;
25663;SDS011;13522;50.018;20.014;2022-11-15T10:07:02;46.05;;;26.80;;
25663;SDS011;13522;50.018;20.014;2022-11-15T10:10:16;44.33;;;26.25;;
25663;SDS011;13522;50.018;20.014;2022-11-15T10:13:33;35.65;;;22.63;;
25663;SDS011;13522;50.018;20.014;2022-11-15T10:20:42;34.35;;;21.53;;
25663;SDS011;13522;50.018;20.014;2022-11-15T10:24:00;43.40;;;23.85;;
25663;SDS011;13522;50.018;20.014;2022-11-15T10:27:20;34.18;;;22.95;;
25663;SDS011;13522;50.018;20.014;2022-11-15T10:30:34;36.93;;;22.65;;
25663;SDS011;13522;50.018;20.014;2022-11-15T10:33:48;35.03;;;21.18;;
25663;SDS011;13522;50.018;20.014;2022-11-15T10:37:01;30.43;;;20.65;;
25663;SDS011;13522;50.018;20.014;2022-11-15T10:40:16;32.03;;;21.83;;
25663;SDS011;13522;50.018;20.014;2022-11-15T10:43:31;30.23;;;20.60;;
25663;SDS011;13522;50.018;20.014;2022-11-15T10:46:43;30.63;;;20.38;;
25663;SDS011;13522;50.018;20.014;2022-11-15T10:50:02;32.30;;;23.23;;
25663;SDS011;13522;50.018;20.014;2022-11-15T10:53:23;30.40;;;19.63;;
25663;SDS011;13522;50.018;20.014;2022-11-15T10:56:39;27.38;;;19.00;;
25663;SDS011;13522;50.018;20.014;2022-11-15T10:59:53;25.18;;;17.98;;
25663;SDS011;13522;50.018;20.014;2022-11-15T11:03:21;27.80;;;17.43;;
25663;SDS011;13522;50.018;20.014;2022-11-15T11:06:47;26.23;;;17.73;;
25663;SDS011;13522;50.018;20.014;2022-11-15T11:10:02;21.03;;;16.53;;
25663;SDS011;13522;50.018;20.014;2022-11-15T11:13:29;27.98;;;16.95;;
25663;SDS011;13522;50.018;20.014;2022-11-15T11:16:44;26.68;;;17.80;;
25663;SDS011;13522;50.018;20.014;2022-11-15T11:20:02;26.38;;;16.93;;
25663;SDS011;13522;50.018;20.014;2022-11-15T11:23:27;20.98;;;15.45;;
25663;SDS011;13522;50.018;20.014;2022-11-15T11:26:59;28.88;;;18.28;;
25663;SDS011;13522;50.018;20.014;2022-11-15T11:30:23;24.48;;;16.88;;
25663;SDS011;13522;50.018;20.014;2022-11-15T11:33:41;21.73;;;17.33;;
25663;SDS011;13522;50.018;20.014;2022-11-15T11:36:58;25.95;;;17.75;;
25663;SDS011;13522;50.018;20.014;2022-11-15T11:40:19;26.08;;;17.65;;
25663;SDS011;13522;50.018;20.014;2022-11-15T11:43:39;39.63;;;25.90;;
25663;SDS011;13522;50.018;20.014;2022-11-15T11:46:58;33.43;;;22.85;;
25663;SDS011;13522;50.018;20.014;2022-11-15T11:50:15;32.10;;;21.70;;
25663;SDS011;13522;50.018;20.014;2022-11-15T11:53:34;28.20;;;19.25;;
25663;SDS011;13522;50.018;20.014;2022-11-15T11:56:50;30.35;;;21.13;;
25663;SDS011;13522;50.018;20.014;2022-11-15T12:00:04;35.20;;;22.58;;
25663;SDS011;13522;50.018;20.014;2022-11-15T12:03:28;34.60;;;23.33;;
25663;SDS011;13522;50.018;20.014;2022-11-15T12:06:45;35.53;;;24.80;;
25663;SDS011;13522;50.018;20.014;2022-11-15T12:10:01;33.13;;;23.78;;
25663;SDS011;13522;50.018;20.014;2022-11-15T12:13:23;40.43;;;28.10;;
25663;SDS011;13522;50.018;20.014;2022-11-15T12:16:40;44.98;;;32.30;;
25663;SDS011;13522;50.018;20.014;2022-11-15T12:19:53;45.00;;;31.35;;
25663;SDS011;13522;50.018;20.014;2022-11-15T12:23:13;46.38;;;30.58;;
25663;SDS011;13522;50.018;20.014;2022-11-15T12:26:29;46.25;;;30.95;;
25663;SDS011;13522;50.018;20.014;2022-11-15T12:29:46;44.23;;;31.70;;
25663;SDS011;13522;50.018;20.014;2022-11-15T12:33:01;44.45;;;31.83;;
25663;SDS011;13522;50.018;20.014;2022-11-15T12:36:33;49.18;;;32.08;;
25663;SDS011;13522;50.018;20.014;2022-11-15T12:40:04;49.78;;;33.95;;
25663;SDS011;13522;50.018;20.014;2022-11-15T12:43:42;57.10;;;34.60;;
25663;SDS011;13522;50.018;20.014;2022-11-15T12:47:21;51.08;;;32.58;;
25663;SDS011;13522;50.018;20.014;2022-11-15T13:01:55;55.20;;;34.03;;
25663;SDS011;13522;50.018;20.014;2022-11-15T13:13:02;53.55;;;34.90;;
25663;SDS011;13522;50.018;20.014;2022-11-15T13:16:19;55.18;;;35.70;;
25663;SDS011;13522;50.018;20.014;2022-11-15T13:19:31;55.53;;;36.03;;
25663;SDS011;13522;50.018;20.014;2022-11-15T13:22:45;60.58;;;37.45;;
25663;SDS011;13522;50.018;20.014;2022-11-15T13:29:28;50.68;;;34.35;;
25663;SDS011;13522;50.018;20.014;2022-11-15T13:32:40;55.98;;;32.88;;
25663;SDS011;13522;50.018;20.014;2022-11-15T13:35:52;50.23;;;33.18;;
25663;SDS011;13522;50.018;20.014;2022-11-15T13:39:14;50.18;;;32.90;;
25663;SDS011;13522;50.018;20.014;2022-11-15T13:42:34;52.75;;;34.65;;
25663;SDS011;13522;50.018;20.014;2022-11-15T13:45:48;51.60;;;33.45;;
25663;SDS011;13522;50.018;20.014;2022-11-15T13:49:18;55.25;;;32.75;;
25663;SDS011;13522;50.018;20.014;2022-11-15T13:52:32;47.48;;;31.95;;
25663;SDS011;13522;50.018;20.014;2022-11-15T13:55:47;54.05;;;32.65;;
25663;SDS011;13522;50.018;20.014;2022-11-15T13:58:59;57.05;;;37.78;;
25663;SDS011;13522;50.018;20.014;2022-11-15T14:02:18;56.60;;;36.18;;
25663;SDS011;13522;50.018;20.014;2022-11-15T14:05:34;46.50;;;32.30;;
25663;SDS011;13522;50.018;20.014;2022-11-15T14:08:59;47.45;;;31.30;;
25663;SDS011;13522;50.018;20.014;2022-11-15T14:12:49;44.10;;;29.83;;
25663;SDS011;13522;50.018;20.014;2022-11-15T14:16:13;51.98;;;32.80;;
25663;SDS011;13522;50.018;20.014;2022-11-15T14:19:39;49.33;;;33.43;;
25663;SDS011;13522;50.018;20.014;2022-11-15T14:22:54;51.85;;;34.28;;
25663;SDS011;13522;50.018;20.014;2022-11-15T14:26:11;56.30;;;35.40;;
25663;SDS011;13522;50.018;20.014;2022-11-15T14:29:42;59.80;;;35.30;;
25663;SDS011;13522;50.018;20.014;2022-11-15T14:32:53;59.55;;;36.75;;
25663;SDS011;13522;50.018;20.014;2022-11-15T14:36:06;66.85;;;35.38;;
25663;SDS011;13522;50.018;20.014;2022-11-15T14:39:22;55.45;;;34.50;;
25663;SDS011;13522;50.018;20.014;2022-11-15T14:42:34;65.73;;;35.35;;
25663;SDS011;13522;50.018;20.014;2022-11-15T14:45:46;62.60;;;35.28;;
25663;SDS011;13522;50.018;20.014;2022-11-15T14:48:58;62.03;;;35.38;;
25663;SDS011;13522;50.018;20.014;2022-11-15T14:52:19;63.58;;;37.55;;
25663;SDS011;13522;50.018;20.014;2022-11-15T14:55:38;58.43;;;35.78;;
25663;SDS011;13522;50.018;20.014;2022-11-15T14:58:49;59.25;;;33.45;;
25663;SDS011;13522;50.018;20.014;2022-11-15T15:02:04;56.63;;;34.95;;
25663;SDS011;13522;50.018;20.014;2022-11-15T15:05:25;61.55;;;35.58;;
25663;SDS011;13522;50.018;20.014;2022-11-15T15:08:40;61.28;;;37.15;;
25663;SDS011;13522;50.018;20.014;2022-11-15T15:11:54;52.50;;;34.60;;
25663;SDS011;13522;50.018;20.014;2022-11-15T15:15:10;55.88;;;33.70;;
25663;SDS011;13522;50.018;20.014;2022-11-15T15:18:26;56.78;;;34.83;;
25663;SDS011;13522;50.018;20.014;2022-11-15T15:21:38;65.85;;;36.23;;
25663;SDS011;13522;50.018;20.014;2022-11-15T15:24:49;62.68;;;38.00;;
25663;SDS011;13522;50.018;20.014;2022-11-15T15:28:01;62.03;;;36.45;;
25663;SDS011;13522;50.018;20.014;2022-11-15T15:31:13;56.78;;;34.90;;
25663;SDS011;13522;50.018;20.014;2022-11-15T15:34:25;49.43;;;32.05;;
25663;SDS011;13522;50.018;20.014;2022-11-15T15:37:37;57.98;;;32.65;;
25663;SDS011;13522;50.018;20.014;2022-11-15T15:40:50;63.60;;;36.50;;
25663;SDS011;13522;50.018;20.014;2022-11-15T15:44:03;67.20;;;35.25;;
25663;SDS011;13522;50.018;20.014;2022-11-15T15:47:16;52.43;;;34.88;;
25663;SDS011;13522;50.018;20.014;2022-11-15T15:50:32;64.90;;;36.73;;
25663;SDS011;13522;50.018;20.014;2022-11-15T15:53:47;57.80;;;35.95;;
25663;SDS011;13522;50.018;20.014;2022-11-15T15:57:01;70.35;;;37.73;;
25663;SDS011;13522;50.018;20.014;2022-11-15T16:00:14;56.18;;;34.13;;
25663;SDS011;13522;50.018;20.014;2022-11-15T16:03:28;62.38;;;35.13;;
25663;SDS011;13522;50.018;20.014;2022-11-15T16:06:41;60.88;;;35.55;;
25663;SDS011;13522;50.018;20.014;2022-11-15T16:09:55;64.23;;;36.15;;
25663;SDS011;13522;50.018;20.014;2022-11-15T16:13:10;72.88;;;36.10;;
25663;SDS011;13522;50.018;20.014;2022-11-15T16:16:22;67.40;;;36.50;;
25663;SDS011;13522;50.018;20.014;2022-11-15T16:19:33;69.03;;;35.70;;
25663;SDS011;13522;50.018;20.014;2022-11-15T16:22:45;73.23;;;36.23;;
25663;SDS011;13522;50.018;20.014;2022-11-15T16:25:57;69.73;;;37.30;;
25663;SDS011;13522;50.018;20.014;2022-11-15T16:29:09;70.65;;;38.55;;
25663;SDS011;13522;50.018;20.014;2022-11-15T16:32:21;80.05;;;37.58;;
25663;SDS011;13522;50.018;20.014;2022-11-15T16:35:33;65.83;;;35.28;;
25663;SDS011;13522;50.018;20.014;2022-11-15T16:38:45;69.93;;;36.38;;
25663;SDS011;13522;50.018;20.014;2022-11-15T16:41:57;82.30;;;40.83;;
25663;SDS011;13522;50.018;20.014;2022-11-15T16:45:11;89.35;;;39.70;;
25663;SDS011;13522;50.018;20.014;2022-11-15T16:48:24;76.15;;;38.78;;
25663;SDS011;13522;50.018;20.014;2022-11-15T16:51:38;80.33;;;38.53;;
25663;SDS011;13522;50.018;20.014;2022-11-15T16:54:50;75.18;;;37.60;;
25663;SDS011;13522;50.018;20.014;2022-11-15T16:58:02;76.65;;;38.08;;
25663;SDS011;13522;50.018;20.014;2022-11-15T17:01:17;74.90;;;36.85;;
25663;SDS011;13522;50.018;20.014;2022-11-15T17:04:32;86.90;;;38.13;;
25663;SDS011;13522;50.018;20.014;2022-11-15T17:07:47;72.73;;;35.63;;
25663;SDS011;13522;50.018;20.014;2022-11-15T17:11:01;76.80;;;38.30;;
25663;SDS011;13522;50.018;20.014;2022-11-15T17:14:16;81.23;;;39.78;;
25663;SDS011;13522;50.018;20.014;2022-11-15T17:17:28;79.33;;;39.28;;
25663;SDS011;13522;50.018;20.014;2022-11-15T17:20:40;72.18;;;38.05;;
25663;SDS011;13522;50.018;20.014;2022-11-15T17:23:52;78.75;;;39.90;;
25663;SDS011;13522;50.018;20.014;2022-11-15T17:27:05;79.58;;;40.15;;
25663;SDS011;13522;50.018;20.014;2022-11-15T17:30:18;70.50;;;36.50;;
25663;SDS011;13522;50.018;20.014;2022-11-15T17:33:30;70.90;;;36.28;;
25663;SDS011;13522;50.018;20.014;2022-11-15T17:36:45;69.55;;;36.93;;
25663;SDS011;13522;50.018;20.014;2022-11-15T17:39:57;61.65;;;35.48;;
25663;SDS011;13522;50.018;20.014;2022-11-15T17:43:08;66.00;;;36.45;;
25663;SDS011;13522;50.018;20.014;2022-11-15T17:46:20;80.75;;;37.90;;
25663;SDS011;13522;50.018;20.014;2022-11-15T17:49:33;70.43;;;37.20;;
25663;SDS011;13522;50.018;20.014;2022-11-15T17:52:45;65.80;;;36.20;;
25663;SDS011;13522;50.018;20.014;2022-11-15T17:56:01;79.65;;;38.18;;
25663;SDS011;13522;50.018;20.014;2022-11-15T18:02:25;75.53;;;37.03;;
25663;SDS011;13522;50.018;20.014;2022-11-15T18:05:37;70.53;;;36.60;;
25663;SDS011;13522;50.018;20.014;2022-11-15T18:08:51;65.05;;;36.63;;
25663;SDS011;13522;50.018;20.014;2022-11-15T18:12:03;75.45;;;36.83;;
25663;SDS011;13522;50.018;20.014;2022-11-15T18:15:16;66.88;;;36.70;;
25663;SDS011;13522;50.018;20.014;2022-11-15T18:18:27;61.73;;;35.20;;
25663;SDS011;13522;50.018;20.014;2022-11-15T18:21:40;62.90;;;34.80;;
25663;SDS011;13522;50.018;20.014;2022-11-15T18:25:04;63.13;;;34.40;;
25663;SDS011;13522;50.018;20.014;2022-11-15T18:28:18;63.68;;;35.48;;
25663;SDS011;13522;50.018;20.014;2022-11-15T18:31:33;56.30;;;32.50;;
25663;SDS011;13522;50.018;20.014;2022-11-15T18:34:47;60.98;;;34.18;;
25663;SDS011;13522;50.018;20.014;2022-11-15T18:37:59;59.35;;;35.45;;
25663;SDS011;13522;50.018;20.014;2022-11-15T18:41:12;63.70;;;35.93;;
25663;SDS011;13522;50.018;20.014;2022-11-15T18:44:28;60.15;;;36.08;;
25663;SDS011;13522;50.018;20.014;2022-11-15T18:47:40;57.28;;;34.78;;
25663;SDS011;13522;50.018;20.014;2022-11-15T18:50:52;57.05;;;35.85;;
25663;SDS011;13522;50.018;20.014;2022-11-15T18:54:10;64.83;;;39.03;;
25663;SDS011;13522;50.018;20.014;2022-11-15T18:57:25;68.17;;;36.87;;
25663;SDS011;13522;50.018;20.014;2022-11-15T19:00:38;73.15;;;38.63;;
25663;SDS011;13522;50.018;20.014;2022-11-15T19:03:51;62.75;;;35.70;;
25663;SDS011;13522;50.018;20.014;2022-11-15T19:07:06;57.08;;;36.78;;
25663;SDS011;13522;50.018;20.014;2022-11-15T19:10:18;60.08;;;35.15;;
25663;SDS011;13522;50.018;20.014;2022-11-15T19:13:30;55.65;;;33.05;;
25663;SDS011;13522;50.018;20.014;2022-11-15T19:16:42;63.68;;;34.03;;
25663;SDS011;13522;50.018;20.014;2022-11-15T19:19:57;59.78;;;33.95;;
25663;SDS011;13522;50.018;20.014;2022-11-15T19:23:09;63.48;;;37.05;;
25663;SDS011;13522;50.018;20.014;2022-11-15T19:26:21;66.40;;;34.58;;
25663;SDS011;13522;50.018;20.014;2022-11-15T19:29:34;66.15;;;34.98;;
25663;SDS011;13522;50.018;20.014;2022-11-15T19:32:46;66.75;;;35.28;;
25663;SDS011;13522;50.018;20.014;2022-11-15T19:36:00;65.55;;;35.85;;
25663;SDS011;13522;50.018;20.014;2022-11-15T19:39:14;54.23;;;33.85;;
25663;SDS011;13522;50.018;20.014;2022-11-15T19:42:26;56.48;;;34.88;;
25663;SDS011;13522;50.018;20.014;2022-11-15T19:45:38;56.75;;;36.28;;
25663;SDS011;13522;50.018;20.014;2022-11-15T19:48:52;61.50;;;36.73;;
25663;SDS011;13522;50.018;20.014;2022-11-15T19:52:04;62.13;;;37.43;;
25663;SDS011;13522;50.018;20.014;2022-11-15T19:55:16;65.13;;;39.10;;
25663;SDS011;13522;50.018;20.014;2022-11-15T19:58:28;62.93;;;36.78;;
25663;SDS011;13522;50.018;20.014;2022-11-15T20:01:41;66.13;;;39.03;;
25663;SDS011;13522;50.018;20.014;2022-11-15T20:04:53;65.20;;;36.15;;